sensor_id;sensor_type;location;lat;lon;timestamp;pressure;altitude;pressure_sealevel;temperature
27826;BMP280;15077;49.704;9.908;2023-03-16T00:00:48;98623.47;;;6.04
27826;BMP280;15077;49.704;9.908;2023-03-16T00:03:14;98623.53;;;6.01
27826;BMP280;15077;49.704;9.908;2023-03-16T00:05:50;98620.16;;;6.00
27826;BMP280;15077;49.704;9.908;2023-03-16T00:08:17;98626.06;;;5.98
27826;BMP280;15077;49.704;9.908;2023-03-16T00:10:43;98628.59;;;5.96
27826;BMP280;15077;49.704;9.908;2023-03-16T00:13:23;98636.16;;;5.95
27826;BMP280;15077;49.704;9.908;2023-03-16T00:15:56;98633.66;;;5.93
27826;BMP280;15077;49.704;9.908;2023-03-16T00:18:24;98640.41;;;5.91
27826;BMP280;15077;49.704;9.908;2023-03-16T00:20:59;98633.72;;;5.89
27826;BMP280;15077;49.704;9.908;2023-03-16T00:23:27;98634.63;;;5.86
27826;BMP280;15077;49.704;9.908;2023-03-16T00:25:58;98633.78;;;5.86
27826;BMP280;15077;49.704;9.908;2023-03-16T00:28:26;98629.63;;;5.83
27826;BMP280;15077;49.704;9.908;2023-03-16T00:30:53;98633.84;;;5.81
27826;BMP280;15077;49.704;9.908;2023-03-16T00:33:24;98632.22;;;5.79
27826;BMP280;15077;49.704;9.908;2023-03-16T00:35:50;98631.41;;;5.76
27826;BMP280;15077;49.704;9.908;2023-03-16T00:38:28;98637.28;;;5.73
27826;BMP280;15077;49.704;9.908;2023-03-16T00:40:55;98640.66;;;5.71
27826;BMP280;15077;49.704;9.908;2023-03-16T00:43:21;98638.16;;;5.71
27826;BMP280;15077;49.704;9.908;2023-03-16T00:45:47;98632.31;;;5.69
27826;BMP280;15077;49.704;9.908;2023-03-16T00:48:12;98629.00;;;5.65
27826;BMP280;15077;49.704;9.908;2023-03-16T00:50:38;98635.75;;;5.62
27826;BMP280;15077;49.704;9.908;2023-03-16T00:53:04;98637.47;;;5.60
27826;BMP280;15077;49.704;9.908;2023-03-16T00:55:30;98635.00;;;5.57
27826;BMP280;15077;49.704;9.908;2023-03-16T00:57:58;98636.66;;;5.56
27826;BMP280;15077;49.704;9.908;2023-03-16T01:00:23;98633.34;;;5.54
27826;BMP280;15077;49.704;9.908;2023-03-16T01:02:53;98635.88;;;5.53
27826;BMP280;15077;49.704;9.908;2023-03-16T01:05:18;98636.72;;;5.50
27826;BMP280;15077;49.704;9.908;2023-03-16T01:07:44;98634.25;;;5.49
27826;BMP280;15077;49.704;9.908;2023-03-16T01:10:11;98633.44;;;5.47
27826;BMP280;15077;49.704;9.908;2023-03-16T01:12:37;98634.28;;;5.46
27826;BMP280;15077;49.704;9.908;2023-03-16T01:15:03;98636.81;;;5.44
27826;BMP280;15077;49.704;9.908;2023-03-16T01:17:29;98641.84;;;5.44
27826;BMP280;15077;49.704;9.908;2023-03-16T01:20:00;98634.31;;;5.43
27826;BMP280;15077;49.704;9.908;2023-03-16T01:22:26;98626.78;;;5.41
27826;BMP280;15077;49.704;9.908;2023-03-16T01:24:53;98620.94;;;5.41
27826;BMP280;15077;49.704;9.908;2023-03-16T01:27:19;98620.09;;;5.39
27826;BMP280;15077;49.704;9.908;2023-03-16T01:29:45;98623.47;;;5.39
27826;BMP280;15077;49.704;9.908;2023-03-16T01:32:11;98620.97;;;5.38
27826;BMP280;15077;49.704;9.908;2023-03-16T01:34:37;98631.84;;;5.38
27826;BMP280;15077;49.704;9.908;2023-03-16T01:37:03;98626.00;;;5.38
27826;BMP280;15077;49.704;9.908;2023-03-16T01:39:29;98626.88;;;5.35
27826;BMP280;15077;49.704;9.908;2023-03-16T01:41:55;98623.53;;;5.35
27826;BMP280;15077;49.704;9.908;2023-03-16T01:44:24;98631.91;;;5.34
27826;BMP280;15077;49.704;9.908;2023-03-16T01:46:55;98629.44;;;5.31
27826;BMP280;15077;49.704;9.908;2023-03-16T01:49:29;98633.63;;;5.30
27826;BMP280;15077;49.704;9.908;2023-03-16T01:52:11;98614.41;;;5.27
27826;BMP280;15077;49.704;9.908;2023-03-16T01:54:47;98620.28;;;5.26
27826;BMP280;15077;49.704;9.908;2023-03-16T01:57:30;98621.97;;;5.24
27826;BMP280;15077;49.704;9.908;2023-03-16T02:00:15;98623.66;;;5.23
27826;BMP280;15077;49.704;9.908;2023-03-16T02:02:54;98618.66;;;5.22
27826;BMP280;15077;49.704;9.908;2023-03-16T02:05:30;98615.31;;;5.21
27826;BMP280;15077;49.704;9.908;2023-03-16T02:08:00;98617.84;;;5.20
27826;BMP280;15077;49.704;9.908;2023-03-16T02:10:33;98613.69;;;5.19
27826;BMP280;15077;49.704;9.908;2023-03-16T02:13:00;98605.31;;;5.17
27826;BMP280;15077;49.704;9.908;2023-03-16T02:15:26;98607.84;;;5.15
27826;BMP280;15077;49.704;9.908;2023-03-16T02:17:54;98595.31;;;5.12
27826;BMP280;15077;49.704;9.908;2023-03-16T02:20:38;98590.28;;;5.11
27826;BMP280;15077;49.704;9.908;2023-03-16T02:23:11;98591.19;;;5.08
27826;BMP280;15077;49.704;9.908;2023-03-16T02:28:59;98583.69;;;5.02
27826;BMP280;15077;49.704;9.908;2023-03-16T02:31:28;98582.88;;;5.00
27826;BMP280;15077;49.704;9.908;2023-03-16T02:33:59;98577.84;;;5.00
27826;BMP280;15077;49.704;9.908;2023-03-16T02:36:26;98577.06;;;4.98
27826;BMP280;15077;49.704;9.908;2023-03-16T02:38:52;98572.88;;;4.97
27826;BMP280;15077;49.704;9.908;2023-03-16T02:41:20;98569.56;;;4.95
27826;BMP280;15077;49.704;9.908;2023-03-16T02:44:01;98557.84;;;4.94
27826;BMP280;15077;49.704;9.908;2023-03-16T02:46:30;98564.56;;;4.92
27826;BMP280;15077;49.704;9.908;2023-03-16T02:49:24;98572.97;;;4.88
27826;BMP280;15077;49.704;9.908;2023-03-16T02:51:52;98573.81;;;4.87
27826;BMP280;15077;49.704;9.908;2023-03-16T02:54:20;98579.69;;;4.86
27826;BMP280;15077;49.704;9.908;2023-03-16T02:56:46;98580.56;;;4.84
27826;BMP280;15077;49.704;9.908;2023-03-16T02:59:14;98582.25;;;4.83
27826;BMP280;15077;49.704;9.908;2023-03-16T03:01:40;98588.09;;;4.82
27826;BMP280;15077;49.704;9.908;2023-03-16T03:04:07;98587.31;;;4.81
27826;BMP280;15077;49.704;9.908;2023-03-16T03:06:33;98579.78;;;4.78
27826;BMP280;15077;49.704;9.908;2023-03-16T03:09:03;98588.16;;;4.77
27826;BMP280;15077;49.704;9.908;2023-03-16T03:11:30;98591.53;;;4.73
27826;BMP280;15077;49.704;9.908;2023-03-16T03:13:57;98598.25;;;4.74
27826;BMP280;15077;49.704;9.908;2023-03-16T03:16:25;98590.72;;;4.72
27826;BMP280;15077;49.704;9.908;2023-03-16T03:18:53;98579.88;;;4.72
27826;BMP280;15077;49.704;9.908;2023-03-16T03:21:21;98568.16;;;4.71
27826;BMP280;15077;49.704;9.908;2023-03-16T03:23:51;98575.69;;;4.69
27826;BMP280;15077;49.704;9.908;2023-03-16T03:26:19;98572.34;;;4.69
27826;BMP280;15077;49.704;9.908;2023-03-16T03:28:50;98567.34;;;4.67
27826;BMP280;15077;49.704;9.908;2023-03-16T03:31:21;98572.38;;;4.67
27826;BMP280;15077;49.704;9.908;2023-03-16T03:33:48;98574.91;;;4.66
27826;BMP280;15077;49.704;9.908;2023-03-16T03:36:16;98566.50;;;4.67
27826;BMP280;15077;49.704;9.908;2023-03-16T03:38:42;98571.53;;;4.67
27826;BMP280;15077;49.704;9.908;2023-03-16T03:41:08;98578.22;;;4.68
27826;BMP280;15077;49.704;9.908;2023-03-16T03:43:35;98572.38;;;4.67
27826;BMP280;15077;49.704;9.908;2023-03-16T03:46:02;98576.53;;;4.68
27826;BMP280;15077;49.704;9.908;2023-03-16T03:48:28;98575.72;;;4.68
27826;BMP280;15077;49.704;9.908;2023-03-16T03:50:56;98575.72;;;4.68
27826;BMP280;15077;49.704;9.908;2023-03-16T03:53:22;98574.88;;;4.69
27826;BMP280;15077;49.704;9.908;2023-03-16T03:55:48;98569.00;;;4.68
27826;BMP280;15077;49.704;9.908;2023-03-16T03:58:14;98575.69;;;4.69
27826;BMP280;15077;49.704;9.908;2023-03-16T04:00:42;98564.81;;;4.69
27826;BMP280;15077;49.704;9.908;2023-03-16T04:03:08;98567.34;;;4.69
27826;BMP280;15077;49.704;9.908;2023-03-16T04:05:34;98549.75;;;4.69
27826;BMP280;15077;49.704;9.908;2023-03-16T04:08:02;98553.94;;;4.68
27826;BMP280;15077;49.704;9.908;2023-03-16T04:10:29;98556.44;;;4.68
27826;BMP280;15077;49.704;9.908;2023-03-16T04:12:58;98559.81;;;4.69
27826;BMP280;15077;49.704;9.908;2023-03-16T04:15:27;98564.81;;;4.69
27826;BMP280;15077;49.704;9.908;2023-03-16T04:17:55;98562.34;;;4.67
27826;BMP280;15077;49.704;9.908;2023-03-16T04:20:21;98566.50;;;4.68
27826;BMP280;15077;49.704;9.908;2023-03-16T04:22:49;98555.63;;;4.68
27826;BMP280;15077;49.704;9.908;2023-03-16T04:25:28;98548.91;;;4.68
27826;BMP280;15077;49.704;9.908;2023-03-16T04:27:55;98539.75;;;4.67
27826;BMP280;15077;49.704;9.908;2023-03-16T04:30:22;98536.38;;;4.67
27826;BMP280;15077;49.704;9.908;2023-03-16T04:32:52;98544.75;;;4.69
27826;BMP280;15077;49.704;9.908;2023-03-16T04:35:18;98546.41;;;4.68
27826;BMP280;15077;49.704;9.908;2023-03-16T04:37:44;98542.25;;;4.67
27826;BMP280;15077;49.704;9.908;2023-03-16T04:40:12;98548.09;;;4.66
27826;BMP280;15077;49.704;9.908;2023-03-16T04:42:47;98550.63;;;4.65
27826;BMP280;15077;49.704;9.908;2023-03-16T04:45:15;98553.97;;;4.64
27826;BMP280;15077;49.704;9.908;2023-03-16T04:47:43;98553.97;;;4.64
27826;BMP280;15077;49.704;9.908;2023-03-16T04:50:10;98547.31;;;4.63
27826;BMP280;15077;49.704;9.908;2023-03-16T04:52:38;98548.97;;;4.62
27826;BMP280;15077;49.704;9.908;2023-03-16T04:55:10;98553.19;;;4.62
27826;BMP280;15077;49.704;9.908;2023-03-16T04:57:37;98545.66;;;4.59
27826;BMP280;15077;49.704;9.908;2023-03-16T05:00:04;98547.31;;;4.58
27826;BMP280;15077;49.704;9.908;2023-03-16T05:02:37;98544.84;;;4.57
27826;BMP280;15077;49.704;9.908;2023-03-16T05:05:04;98549.03;;;4.56
27826;BMP280;15077;49.704;9.908;2023-03-16T05:07:30;98545.72;;;4.54
27826;BMP280;15077;49.704;9.908;2023-03-16T05:09:57;98552.41;;;4.54
27826;BMP280;15077;49.704;9.908;2023-03-16T05:12:22;98554.09;;;4.53
27826;BMP280;15077;49.704;9.908;2023-03-16T05:14:48;98546.56;;;4.53
27826;BMP280;15077;49.704;9.908;2023-03-16T05:17:14;98542.38;;;4.52
27826;BMP280;15077;49.704;9.908;2023-03-16T05:19:40;98538.22;;;4.51
27826;BMP280;15077;49.704;9.908;2023-03-16T05:22:07;98532.34;;;4.51
27826;BMP280;15077;49.704;9.908;2023-03-16T05:24:33;98532.38;;;4.49
27826;BMP280;15077;49.704;9.908;2023-03-16T05:26:58;98535.75;;;4.47
27826;BMP280;15077;49.704;9.908;2023-03-16T05:29:24;98534.91;;;4.45
27826;BMP280;15077;49.704;9.908;2023-03-16T05:31:51;98541.63;;;4.46
27826;BMP280;15077;49.704;9.908;2023-03-16T05:34:16;98536.59;;;4.46
27826;BMP280;15077;49.704;9.908;2023-03-16T05:36:42;98544.97;;;4.45
27826;BMP280;15077;49.704;9.908;2023-03-16T05:39:09;98544.13;;;4.44
27826;BMP280;15077;49.704;9.908;2023-03-16T05:41:35;98544.97;;;4.43
27826;BMP280;15077;49.704;9.908;2023-03-16T05:44:01;98550.00;;;4.42
27826;BMP280;15077;49.704;9.908;2023-03-16T05:46:29;98555.00;;;4.43
27826;BMP280;15077;49.704;9.908;2023-03-16T05:48:55;98545.84;;;4.42
27826;BMP280;15077;49.704;9.908;2023-03-16T05:51:20;98549.19;;;4.41
27826;BMP280;15077;49.704;9.908;2023-03-16T05:53:47;98550.00;;;4.42
27826;BMP280;15077;49.704;9.908;2023-03-16T05:56:13;98552.53;;;4.42
27826;BMP280;15077;49.704;9.908;2023-03-16T05:58:39;98547.50;;;4.40
27826;BMP280;15077;49.704;9.908;2023-03-16T06:01:06;98550.00;;;4.42
27826;BMP280;15077;49.704;9.908;2023-03-16T06:03:34;98555.03;;;4.42
27826;BMP280;15077;49.704;9.908;2023-03-16T06:05:59;98549.19;;;4.41
27826;BMP280;15077;49.704;9.908;2023-03-16T06:08:26;98547.50;;;4.42
27826;BMP280;15077;49.704;9.908;2023-03-16T06:10:52;98547.50;;;4.42
27826;BMP280;15077;49.704;9.908;2023-03-16T06:13:17;98551.69;;;4.43
27826;BMP280;15077;49.704;9.908;2023-03-16T06:15:43;98553.38;;;4.42
27826;BMP280;15077;49.704;9.908;2023-03-16T06:18:09;98554.22;;;4.41
27826;BMP280;15077;49.704;9.908;2023-03-16T06:20:35;98541.66;;;4.41
27826;BMP280;15077;49.704;9.908;2023-03-16T06:23:01;98555.88;;;4.42
27826;BMP280;15077;49.704;9.908;2023-03-16T06:25:27;98553.38;;;4.42
27826;BMP280;15077;49.704;9.908;2023-03-16T06:27:52;98554.22;;;4.41
27826;BMP280;15077;49.704;9.908;2023-03-16T06:30:18;98565.06;;;4.42
27826;BMP280;15077;49.704;9.908;2023-03-16T06:32:44;98560.03;;;4.42
27826;BMP280;15077;49.704;9.908;2023-03-16T06:35:11;98563.41;;;4.41
27826;BMP280;15077;49.704;9.908;2023-03-16T06:37:37;98558.41;;;4.41
27826;BMP280;15077;49.704;9.908;2023-03-16T06:40:04;98569.28;;;4.40
27826;BMP280;15077;49.704;9.908;2023-03-16T06:42:30;98570.09;;;4.39
27826;BMP280;15077;49.704;9.908;2023-03-16T06:44:55;98565.94;;;4.39
27826;BMP280;15077;49.704;9.908;2023-03-16T06:47:21;98575.13;;;4.39
27826;BMP280;15077;49.704;9.908;2023-03-16T06:49:47;98568.47;;;4.38
27826;BMP280;15077;49.704;9.908;2023-03-16T06:52:13;98565.97;;;4.38
27826;BMP280;15077;49.704;9.908;2023-03-16T06:54:40;98571.81;;;4.37
27826;BMP280;15077;49.704;9.908;2023-03-16T06:57:06;98565.97;;;4.38
27826;BMP280;15077;49.704;9.908;2023-03-16T06:59:32;98572.63;;;4.39
27826;BMP280;15077;49.704;9.908;2023-03-16T07:01:58;98575.97;;;4.41
27826;BMP280;15077;49.704;9.908;2023-03-16T07:04:24;98578.50;;;4.39
27826;BMP280;15077;49.704;9.908;2023-03-16T07:06:50;98576.81;;;4.40
27826;BMP280;15077;49.704;9.908;2023-03-16T07:09:16;98579.31;;;4.40
27826;BMP280;15077;49.704;9.908;2023-03-16T07:11:41;98578.47;;;4.41
27826;BMP280;15077;49.704;9.908;2023-03-16T07:14:07;98585.16;;;4.42
27826;BMP280;15077;49.704;9.908;2023-03-16T07:16:33;98582.63;;;4.42
27826;BMP280;15077;49.704;9.908;2023-03-16T07:18:59;98580.97;;;4.42
27826;BMP280;15077;49.704;9.908;2023-03-16T07:21:24;98589.31;;;4.46
27826;BMP280;15077;49.704;9.908;2023-03-16T07:23:50;98583.44;;;4.47
27826;BMP280;15077;49.704;9.908;2023-03-16T07:26:16;98580.06;;;4.48
27826;BMP280;15077;49.704;9.908;2023-03-16T07:28:42;98578.41;;;4.50
27826;BMP280;15077;49.704;9.908;2023-03-16T07:31:08;98580.88;;;4.53
27826;BMP280;15077;49.704;9.908;2023-03-16T07:33:36;98578.34;;;4.56
27826;BMP280;15077;49.704;9.908;2023-03-16T07:36:02;98576.63;;;4.58
27826;BMP280;15077;49.704;9.908;2023-03-16T07:38:32;98565.75;;;4.60
27826;BMP280;15077;49.704;9.908;2023-03-16T07:40:59;98569.91;;;4.63
27826;BMP280;15077;49.704;9.908;2023-03-16T07:43:25;98576.53;;;4.68
27826;BMP280;15077;49.704;9.908;2023-03-16T07:45:51;98572.34;;;4.70
27826;BMP280;15077;49.704;9.908;2023-03-16T07:48:18;98573.13;;;4.74
27826;BMP280;15077;49.704;9.908;2023-03-16T07:50:47;98574.78;;;4.78
27826;BMP280;15077;49.704;9.908;2023-03-16T07:53:12;98574.75;;;4.81
27826;BMP280;15077;49.704;9.908;2023-03-16T07:55:40;98571.31;;;4.84
27826;BMP280;15077;49.704;9.908;2023-03-16T07:58:08;98574.63;;;4.89
27826;BMP280;15077;49.704;9.908;2023-03-16T08:00:36;98567.88;;;4.94
27826;BMP280;15077;49.704;9.908;2023-03-16T08:03:02;98577.03;;;5.00
27826;BMP280;15077;49.704;9.908;2023-03-16T08:05:30;98583.66;;;5.05
27826;BMP280;15077;49.704;9.908;2023-03-16T08:07:57;98580.28;;;5.08
27826;BMP280;15077;49.704;9.908;2023-03-16T08:10:24;98573.56;;;5.10
27826;BMP280;15077;49.704;9.908;2023-03-16T08:12:50;98572.66;;;5.15
27826;BMP280;15077;49.704;9.908;2023-03-16T08:15:16;98574.28;;;5.19
27826;BMP280;15077;49.704;9.908;2023-03-16T08:17:42;98580.94;;;5.23
27826;BMP280;15077;49.704;9.908;2023-03-16T08:20:09;98574.19;;;5.28
27826;BMP280;15077;49.704;9.908;2023-03-16T08:22:37;98575.81;;;5.32
27826;BMP280;15077;49.704;9.908;2023-03-16T08:25:06;98576.56;;;5.37
27826;BMP280;15077;49.704;9.908;2023-03-16T08:27:32;98570.66;;;5.41
27826;BMP280;15077;49.704;9.908;2023-03-16T08:29:58;98580.69;;;5.44
27826;BMP280;15077;49.704;9.908;2023-03-16T08:32:29;98587.31;;;5.48
27826;BMP280;15077;49.704;9.908;2023-03-16T08:34:55;98577.22;;;5.51
27826;BMP280;15077;49.704;9.908;2023-03-16T08:37:22;98579.69;;;5.55
27826;BMP280;15077;49.704;9.908;2023-03-16T08:39:49;98583.00;;;5.59
27826;BMP280;15077;49.704;9.908;2023-03-16T08:42:16;98582.94;;;5.63
27826;BMP280;15077;49.704;9.908;2023-03-16T08:44:42;98580.34;;;5.69
27826;BMP280;15077;49.704;9.908;2023-03-16T08:47:09;98581.13;;;5.74
27826;BMP280;15077;49.704;9.908;2023-03-16T08:49:35;98580.22;;;5.79
27826;BMP280;15077;49.704;9.908;2023-03-16T08:52:02;98576.81;;;5.83
27826;BMP280;15077;49.704;9.908;2023-03-16T08:54:28;98590.09;;;5.91
27826;BMP280;15077;49.704;9.908;2023-03-16T08:56:54;98585.81;;;5.99
27826;BMP280;15077;49.704;9.908;2023-03-16T08:59:20;98585.72;;;6.05
27826;BMP280;15077;49.704;9.908;2023-03-16T09:01:46;98583.91;;;6.13
27826;BMP280;15077;49.704;9.908;2023-03-16T09:04:12;98582.09;;;6.21
27826;BMP280;15077;49.704;9.908;2023-03-16T09:06:39;98576.13;;;6.27
27826;BMP280;15077;49.704;9.908;2023-03-16T09:09:06;98578.53;;;6.32
27826;BMP280;15077;49.704;9.908;2023-03-16T09:11:34;98569.19;;;6.39
27826;BMP280;15077;49.704;9.908;2023-03-16T09:14:00;98568.25;;;6.46
27826;BMP280;15077;49.704;9.908;2023-03-16T09:16:26;98563.06;;;6.53
27826;BMP280;15077;49.704;9.908;2023-03-16T09:18:53;98564.63;;;6.60
27826;BMP280;15077;49.704;9.908;2023-03-16T09:21:20;98571.22;;;6.69
27826;BMP280;15077;49.704;9.908;2023-03-16T09:23:46;98565.19;;;6.75
27826;BMP280;15077;49.704;9.908;2023-03-16T09:26:12;98559.09;;;6.87
27826;BMP280;15077;49.704;9.908;2023-03-16T09:28:40;98554.72;;;6.96
27826;BMP280;15077;49.704;9.908;2023-03-16T09:31:08;98557.84;;;7.09
27826;BMP280;15077;49.704;9.908;2023-03-16T09:33:39;98555.06;;;7.21
27826;BMP280;15077;49.704;9.908;2023-03-16T09:36:05;98554.81;;;7.32
27826;BMP280;15077;49.704;9.908;2023-03-16T09:38:31;98547.81;;;7.46
27826;BMP280;15077;49.704;9.908;2023-03-16T09:41:21;98544.94;;;7.63
27826;BMP280;15077;49.704;9.908;2023-03-16T09:46:40;98531.53;;;7.95
27826;BMP280;15077;49.704;9.908;2023-03-16T09:49:16;98531.13;;;8.13
27826;BMP280;15077;49.704;9.908;2023-03-16T09:51:54;98532.44;;;8.29
27826;BMP280;15077;49.704;9.908;2023-03-16T09:54:56;98526.06;;;8.48
27826;BMP280;15077;49.704;9.908;2023-03-16T09:57:41;98526.34;;;8.68
27826;BMP280;15077;49.704;9.908;2023-03-16T10:00:33;98519.13;;;8.86
27826;BMP280;15077;49.704;9.908;2023-03-16T10:03:40;98514.34;;;9.06
27826;BMP280;15077;49.704;9.908;2023-03-16T10:06:11;98503.75;;;9.22
27826;BMP280;15077;49.704;9.908;2023-03-16T10:11:41;98501.03;;;9.57
27826;BMP280;15077;49.704;9.908;2023-03-16T10:14:36;98492.97;;;9.71
27826;BMP280;15077;49.704;9.908;2023-03-16T10:17:12;98493.41;;;9.84
27826;BMP280;15077;49.704;9.908;2023-03-16T10:19:53;98497.09;;;10.01
27826;BMP280;15077;49.704;9.908;2023-03-16T10:22:36;98499.13;;;10.16
27826;BMP280;15077;49.704;9.908;2023-03-16T10:25:21;98483.44;;;10.31
27826;BMP280;15077;49.704;9.908;2023-03-16T10:27:49;98484.56;;;10.47
27826;BMP280;15077;49.704;9.908;2023-03-16T10:32:45;98481.81;;;10.77
27826;BMP280;15077;49.704;9.908;2023-03-16T10:35:45;98475.31;;;10.93
27826;BMP280;15077;49.704;9.908;2023-03-16T10:43:44;98457.22;;;11.46
27826;BMP280;15077;49.704;9.908;2023-03-16T10:46:10;98462.59;;;11.61
27826;BMP280;15077;49.704;9.908;2023-03-16T10:48:37;98464.59;;;11.74
27826;BMP280;15077;49.704;9.908;2023-03-16T10:51:11;98470.84;;;11.87
27826;BMP280;15077;49.704;9.908;2023-03-16T10:53:43;98467.00;;;11.99
27826;BMP280;15077;49.704;9.908;2023-03-16T10:56:22;98464.03;;;12.09
27826;BMP280;15077;49.704;9.908;2023-03-16T10:58:50;98470.34;;;12.19
27826;BMP280;15077;49.704;9.908;2023-03-16T11:01:26;98458.25;;;12.25
27826;BMP280;15077;49.704;9.908;2023-03-16T11:03:55;98461.28;;;12.33
27826;BMP280;15077;49.704;9.908;2023-03-16T11:06:24;98462.69;;;12.40
27826;BMP280;15077;49.704;9.908;2023-03-16T11:08:53;98452.19;;;12.48
27826;BMP280;15077;49.704;9.908;2023-03-16T11:11:29;98461.97;;;12.57
27826;BMP280;15077;49.704;9.908;2023-03-16T11:14:08;98453.88;;;12.67
27826;BMP280;15077;49.704;9.908;2023-03-16T11:17:09;98456.97;;;12.73
27826;BMP280;15077;49.704;9.908;2023-03-16T11:19:55;98456.47;;;12.85
27826;BMP280;15077;49.704;9.908;2023-03-16T11:22:25;98457.72;;;12.95
27826;BMP280;15077;49.704;9.908;2023-03-16T11:25:09;98453.06;;;13.05
27826;BMP280;15077;49.704;9.908;2023-03-16T11:30:46;98450.72;;;13.18
27826;BMP280;15077;49.704;9.908;2023-03-16T11:33:16;98441.09;;;13.25
27826;BMP280;15077;49.704;9.908;2023-03-16T11:35:48;98426.22;;;13.34
27826;BMP280;15077;49.704;9.908;2023-03-16T11:38:32;98430.09;;;13.43
27826;BMP280;15077;49.704;9.908;2023-03-16T11:41:08;98425.44;;;13.51
27826;BMP280;15077;49.704;9.908;2023-03-16T11:43:48;98423.44;;;13.57
27826;BMP280;15077;49.704;9.908;2023-03-16T12:06:32;98391.78;;;13.96
27826;BMP280;15077;49.704;9.908;2023-03-16T12:11:56;98401.00;;;13.99
27826;BMP280;15077;49.704;9.908;2023-03-16T12:14:47;98405.09;;;14.01
27826;BMP280;15077;49.704;9.908;2023-03-16T12:17:24;98410.78;;;14.07
27826;BMP280;15077;49.704;9.908;2023-03-16T12:19:58;98401.25;;;14.11
27826;BMP280;15077;49.704;9.908;2023-03-16T12:22:43;98396.00;;;14.14
27826;BMP280;15077;49.704;9.908;2023-03-16T12:25:24;98379.72;;;14.16
27826;BMP280;15077;49.704;9.908;2023-03-16T12:27:58;98381.22;;;14.20
27826;BMP280;15077;49.704;9.908;2023-03-16T12:30:51;98374.25;;;14.24
27826;BMP280;15077;49.704;9.908;2023-03-16T12:34:06;98368.38;;;14.22
27826;BMP280;15077;49.704;9.908;2023-03-16T12:46:03;98351.88;;;14.29
27826;BMP280;15077;49.704;9.908;2023-03-16T12:48:40;98343.91;;;14.35
27826;BMP280;15077;49.704;9.908;2023-03-16T12:51:09;98352.91;;;14.42
27826;BMP280;15077;49.704;9.908;2023-03-16T12:53:46;98350.19;;;14.45
27826;BMP280;15077;49.704;9.908;2023-03-16T12:56:31;98356.81;;;14.49
27826;BMP280;15077;49.704;9.908;2023-03-16T12:59:01;98358.09;;;14.55
27826;BMP280;15077;49.704;9.908;2023-03-16T13:01:36;98350.22;;;14.60
27826;BMP280;15077;49.704;9.908;2023-03-16T13:04:17;98355.91;;;14.65
27826;BMP280;15077;49.704;9.908;2023-03-16T13:07:00;98351.31;;;14.71
27826;BMP280;15077;49.704;9.908;2023-03-16T13:09:28;98341.69;;;14.76
27826;BMP280;15077;49.704;9.908;2023-03-16T13:11:57;98342.19;;;14.83
27826;BMP280;15077;49.704;9.908;2023-03-16T13:17:34;98331.56;;;14.90
27826;BMP280;15077;49.704;9.908;2023-03-16T13:26:04;98318.94;;;15.02
27826;BMP280;15077;49.704;9.908;2023-03-16T13:28:35;98317.00;;;15.07
27826;BMP280;15077;49.704;9.908;2023-03-16T13:31:02;98310.88;;;15.10
27826;BMP280;15077;49.704;9.908;2023-03-16T13:33:32;98312.97;;;15.19
27826;BMP280;15077;49.704;9.908;2023-03-16T13:36:04;98317.75;;;15.25
27826;BMP280;15077;49.704;9.908;2023-03-16T13:38:30;98317.41;;;15.31
27826;BMP280;15077;49.704;9.908;2023-03-16T13:41:03;98296.63;;;15.37
27826;BMP280;15077;49.704;9.908;2023-03-16T13:43:31;98303.19;;;15.41
27826;BMP280;15077;49.704;9.908;2023-03-16T13:46:00;98303.78;;;15.46
27826;BMP280;15077;49.704;9.908;2023-03-16T13:48:26;98308.47;;;15.53
27826;BMP280;15077;49.704;9.908;2023-03-16T13:50:56;98293.69;;;15.58
27826;BMP280;15077;49.704;9.908;2023-03-16T13:53:29;98294.31;;;15.61
27826;BMP280;15077;49.704;9.908;2023-03-16T13:55:58;98289.03;;;15.64
27826;BMP280;15077;49.704;9.908;2023-03-16T13:58:36;98294.72;;;15.69
27826;BMP280;15077;49.704;9.908;2023-03-16T14:03:43;98300.03;;;15.80
27826;BMP280;15077;49.704;9.908;2023-03-16T14:06:28;98300.69;;;15.84
27826;BMP280;15077;49.704;9.908;2023-03-16T14:09:03;98294.47;;;15.88
27826;BMP280;15077;49.704;9.908;2023-03-16T14:11:30;98276.56;;;15.88
27826;BMP280;15077;49.704;9.908;2023-03-16T14:13:58;98278.66;;;15.95
27826;BMP280;15077;49.704;9.908;2023-03-16T14:16:27;98265.72;;;15.98
27826;BMP280;15077;49.704;9.908;2023-03-16T14:19:00;98254.59;;;15.99
27826;BMP280;15077;49.704;9.908;2023-03-16T14:21:31;98254.59;;;15.99
27826;BMP280;15077;49.704;9.908;2023-03-16T14:24:05;98253.78;;;15.99
27826;BMP280;15077;49.704;9.908;2023-03-16T14:26:43;98255.66;;;15.95
27826;BMP280;15077;49.704;9.908;2023-03-16T14:29:28;98251.50;;;15.94
27826;BMP280;15077;49.704;9.908;2023-03-16T14:31:57;98244.34;;;15.99
27826;BMP280;15077;49.704;9.908;2023-03-16T14:34:34;98239.25;;;15.99
27826;BMP280;15077;49.704;9.908;2023-03-16T14:37:13;98233.50;;;15.96
27826;BMP280;15077;49.704;9.908;2023-03-16T14:39:39;98240.41;;;15.94
27826;BMP280;15077;49.704;9.908;2023-03-16T14:42:26;98231.41;;;15.88
27826;BMP280;15077;49.704;9.908;2023-03-16T14:45:01;98233.88;;;15.90
27826;BMP280;15077;49.704;9.908;2023-03-16T14:47:37;98225.25;;;15.91
27826;BMP280;15077;49.704;9.908;2023-03-16T14:50:21;98218.53;;;15.90
27826;BMP280;15077;49.704;9.908;2023-03-16T14:52:50;98222.81;;;15.89
27826;BMP280;15077;49.704;9.908;2023-03-16T14:55:19;98225.34;;;15.89
27826;BMP280;15077;49.704;9.908;2023-03-16T14:57:47;98234.78;;;15.89
27826;BMP280;15077;49.704;9.908;2023-03-16T15:00:17;98222.81;;;15.89
27826;BMP280;15077;49.704;9.908;2023-03-16T15:03:03;98222.81;;;15.89
27826;BMP280;15077;49.704;9.908;2023-03-16T15:05:38;98214.22;;;15.90
27826;BMP280;15077;49.704;9.908;2023-03-16T15:08:11;98208.94;;;15.93
27826;BMP280;15077;49.704;9.908;2023-03-16T15:10:39;98210.59;;;15.94
27826;BMP280;15077;49.704;9.908;2023-03-16T15:13:19;98211.41;;;15.95
27826;BMP280;15077;49.704;9.908;2023-03-16T15:16:01;98211.41;;;15.95
27826;BMP280;15077;49.704;9.908;2023-03-16T15:18:33;98204.63;;;15.94
27826;BMP280;15077;49.704;9.908;2023-03-16T15:21:00;98212.22;;;15.95
27826;BMP280;15077;49.704;9.908;2023-03-16T15:23:28;98207.94;;;15.96
27826;BMP280;15077;49.704;9.908;2023-03-16T15:25:55;98208.84;;;15.95
27826;BMP280;15077;49.704;9.908;2023-03-16T15:28:26;98209.75;;;15.94
27826;BMP280;15077;49.704;9.908;2023-03-16T15:30:58;98210.59;;;15.94
27826;BMP280;15077;49.704;9.908;2023-03-16T15:33:25;98209.31;;;15.87
27826;BMP280;15077;49.704;9.908;2023-03-16T15:35:58;98206.75;;;15.87
27826;BMP280;15077;49.704;9.908;2023-03-16T15:38:32;98211.31;;;15.82